createdAt,value
2018-12-27T00:01:31.532Z,2.67
2018-12-27T00:02:31.771Z,2.57
2018-12-27T00:04:24.859Z,2.77
2018-12-27T00:05:25.093Z,2.69
2018-12-27T00:07:29.279Z,2.81
2018-12-27T00:08:29.509Z,2.78
2018-12-27T00:10:33.655Z,2.81
2018-12-27T00:11:33.899Z,2.78
2018-12-27T00:13:38.058Z,2.74
2018-12-27T00:14:38.294Z,2.78
2018-12-27T00:16:42.444Z,2.84
2018-12-27T00:17:42.682Z,2.85
2018-12-27T00:19:46.852Z,2.77
2018-12-27T00:20:47.090Z,2.85
2018-12-27T00:22:51.271Z,2.78
2018-12-27T00:23:51.506Z,2.78
2018-12-27T00:25:55.651Z,2.57
2018-12-27T00:26:55.885Z,2.64
2018-12-27T00:29:00.051Z,2.72
2018-12-27T00:30:00.288Z,2.77
2018-12-27T00:32:04.432Z,2.77
2018-12-27T00:33:04.668Z,2.82
2018-12-27T00:34:57.765Z,2.78
2018-12-27T00:35:58.001Z,2.82
2018-12-27T00:38:02.170Z,2.84
2018-12-27T00:39:02.405Z,2.84
2018-12-27T00:41:06.575Z,2.90
2018-12-27T00:42:06.813Z,2.81
2018-12-27T00:44:10.980Z,2.81
2018-12-27T00:45:11.215Z,2.78
2018-12-27T00:47:15.366Z,2.84
2018-12-27T00:48:15.600Z,2.79
2018-12-27T00:50:20.802Z,2.79
2018-12-27T00:51:21.028Z,2.81
2018-12-27T00:53:25.180Z,2.81
2018-12-27T00:54:25.420Z,2.82
2018-12-27T00:56:29.586Z,2.71
2018-12-27T00:57:29.822Z,2.74
2018-12-27T00:59:33.987Z,2.77
2018-12-27T01:00:34.224Z,2.78
2018-12-27T01:02:38.373Z,2.75
2018-12-27T01:03:38.607Z,2.77
2018-12-27T01:05:42.776Z,2.81
2018-12-27T01:06:43.008Z,2.75
2018-12-27T01:08:47.175Z,2.78
2018-12-27T01:09:47.411Z,2.84
2018-12-27T01:11:51.584Z,2.87
2018-12-27T01:12:51.820Z,2.84
2018-12-27T01:14:44.916Z,2.87
2018-12-27T01:15:45.153Z,2.77
2018-12-27T01:17:49.298Z,2.87
2018-12-27T01:18:49.535Z,2.84
2018-12-27T01:20:53.708Z,2.82
2018-12-27T01:21:53.945Z,2.90
2018-12-27T01:23:58.090Z,2.90
2018-12-27T01:24:58.329Z,2.89
2018-12-27T01:27:02.511Z,3.08
2018-12-27T01:28:02.746Z,2.96
2018-12-27T01:30:06.922Z,2.97
2018-12-27T01:31:07.159Z,3.03
2018-12-27T01:33:18.527Z,3.08
2018-12-27T01:34:11.545Z,3.00
2018-12-27T01:36:15.708Z,3.00
2018-12-27T01:37:15.944Z,3.00
2018-12-27T01:39:20.094Z,3.00
2018-12-27T01:40:20.326Z,3.02
2018-12-27T01:42:24.490Z,3.11
2018-12-27T01:43:24.728Z,3.11
2018-12-27T01:45:28.900Z,3.13
2018-12-27T01:46:29.135Z,3.13
2018-12-27T01:48:33.281Z,3.06
2018-12-27T01:49:33.517Z,3.11
2018-12-27T01:51:37.687Z,3.15
2018-12-27T01:52:37.924Z,3.03
2018-12-27T01:54:31.004Z,3.02
2018-12-27T01:55:31.239Z,3.00
2018-12-27T01:57:35.405Z,2.99
2018-12-27T01:58:35.643Z,3.06
2018-12-27T02:00:39.808Z,3.03
2018-12-27T02:01:40.046Z,3.11
2018-12-27T02:03:44.192Z,3.20
2018-12-27T02:04:44.430Z,3.18
2018-12-27T02:06:48.609Z,3.06
2018-12-27T02:07:48.843Z,3.05
2018-12-27T02:09:52.999Z,3.14
2018-12-27T02:10:53.232Z,3.13
2018-12-27T02:12:57.405Z,3.08
2018-12-27T02:13:57.640Z,3.18
2018-12-27T02:16:01.813Z,3.13
2018-12-27T02:17:02.049Z,3.13
2018-12-27T02:19:06.201Z,3.14
2018-12-27T02:20:06.437Z,3.08
2018-12-27T02:22:10.608Z,3.11
2018-12-27T02:23:10.845Z,3.06
2018-12-27T02:25:03.923Z,3.15
2018-12-27T02:26:04.160Z,3.13
2018-12-27T02:28:08.347Z,3.13
2018-12-27T02:29:08.583Z,3.10
2018-12-27T02:31:12.729Z,3.13
2018-12-27T02:32:12.966Z,3.10
2018-12-27T02:34:17.145Z,3.11
2018-12-27T02:35:17.381Z,3.10
2018-12-27T02:37:21.554Z,3.06
2018-12-27T02:38:21.792Z,3.21
2018-12-27T02:40:25.938Z,3.06
2018-12-27T02:41:26.177Z,3.11
2018-12-27T02:43:30.343Z,3.15
2018-12-27T02:44:30.580Z,3.21
2018-12-27T02:46:34.723Z,3.17
2018-12-27T02:47:34.959Z,3.18
2018-12-27T02:49:39.125Z,3.15
2018-12-27T02:50:39.361Z,3.13
2018-12-27T02:52:43.528Z,3.13
2018-12-27T02:53:43.765Z,3.10
2018-12-27T02:55:47.918Z,3.06
2018-12-27T02:56:48.151Z,3.08
2018-12-27T02:58:52.323Z,3.02
2018-12-27T02:59:52.558Z,2.92
2018-12-27T03:01:56.703Z,3.00
2018-12-27T03:02:56.938Z,3.06
2018-12-27T03:04:51.053Z,3.03
2018-12-27T03:05:51.285Z,2.99
2018-12-27T03:07:55.454Z,2.96
2018-12-27T03:08:55.691Z,2.99
2018-12-27T03:10:59.830Z,3.00
2018-12-27T03:12:00.069Z,2.99
2018-12-27T03:14:04.231Z,2.97
2018-12-27T03:15:04.478Z,2.89
2018-12-27T03:17:08.611Z,3.05
2018-12-27T03:18:08.843Z,3.05
2018-12-27T03:20:13.010Z,3.00
2018-12-27T03:21:13.245Z,2.93
2018-12-27T03:23:17.409Z,2.97
2018-12-27T03:24:17.644Z,3.00
2018-12-27T03:26:21.792Z,3.05
2018-12-27T03:27:22.029Z,3.00
2018-12-27T03:29:26.195Z,3.05
2018-12-27T03:30:26.450Z,2.95
2018-12-27T03:32:30.584Z,2.93
2018-12-27T03:33:30.818Z,3.00
2018-12-27T03:35:34.989Z,3.06
2018-12-27T03:36:35.221Z,3.06
2018-12-27T03:38:39.403Z,3.05
2018-12-27T03:39:39.625Z,2.97
2018-12-27T03:41:43.781Z,3.00
2018-12-27T03:42:44.016Z,3.00
2018-12-27T03:44:37.110Z,2.92
2018-12-27T03:45:37.342Z,3.10
2018-12-27T03:47:41.484Z,2.87
2018-12-27T03:48:41.718Z,2.95
2018-12-27T03:50:45.896Z,2.87
2018-12-27T03:51:46.129Z,2.85
2018-12-27T03:53:50.290Z,2.90
2018-12-27T03:54:50.509Z,2.90
2018-12-27T03:56:54.679Z,2.90
2018-12-27T03:57:54.917Z,2.75
2018-12-27T03:59:59.081Z,2.74
2018-12-27T04:00:59.322Z,2.77
2018-12-27T04:03:03.469Z,2.74
2018-12-27T04:04:03.703Z,2.84
2018-12-27T04:06:07.872Z,2.77
2018-12-27T04:07:08.104Z,2.66
2018-12-27T04:09:12.277Z,2.69
2018-12-27T04:10:12.508Z,2.66
2018-12-27T04:12:16.673Z,2.71
2018-12-27T04:13:16.910Z,2.60
2018-12-27T04:15:21.935Z,2.71
2018-12-27T04:16:22.170Z,2.74
2018-12-27T04:18:26.330Z,2.72
2018-12-27T04:19:26.560Z,2.77
2018-12-27T04:21:30.736Z,2.85
2018-12-27T04:22:30.970Z,2.82
2018-12-27T04:24:24.040Z,2.77
2018-12-27T04:25:24.276Z,2.77
2018-12-27T04:27:28.452Z,2.74
2018-12-27T04:28:28.686Z,2.71
2018-12-27T04:30:32.850Z,2.69
2018-12-27T04:31:33.086Z,2.71
2018-12-27T04:33:37.237Z,2.63
2018-12-27T04:34:37.470Z,2.63
2018-12-27T04:36:41.632Z,2.54
2018-12-27T04:37:41.874Z,2.59
2018-12-27T04:39:47.028Z,2.48
2018-12-27T04:40:47.253Z,2.53
2018-12-27T04:42:51.429Z,2.41
2018-12-27T04:43:51.660Z,2.43
2018-12-27T04:45:55.825Z,2.46
2018-12-27T04:46:56.059Z,2.49
2018-12-27T04:49:00.210Z,2.39
2018-12-27T04:50:00.439Z,2.43
2018-12-27T04:52:04.606Z,2.43
2018-12-27T04:53:04.836Z,2.38
2018-12-27T04:54:57.908Z,2.36
2018-12-27T04:55:58.140Z,2.38
2018-12-27T04:58:02.305Z,2.35
2018-12-27T04:59:02.540Z,2.42
2018-12-27T05:01:06.702Z,2.35
2018-12-27T05:02:06.934Z,2.35
2018-12-27T05:04:18.165Z,2.31
2018-12-27T05:05:11.321Z,2.34
2018-12-27T05:07:15.486Z,2.31
2018-12-27T05:08:15.715Z,2.27
2018-12-27T05:10:19.869Z,2.35
2018-12-27T05:11:20.102Z,2.35
2018-12-27T05:13:24.298Z,2.23
2018-12-27T05:14:24.532Z,2.30
2018-12-27T05:16:28.696Z,2.30
2018-12-27T05:17:28.927Z,2.38
2018-12-27T05:19:33.070Z,2.34
2018-12-27T05:20:33.301Z,2.30
2018-12-27T05:22:37.466Z,2.35
2018-12-27T05:23:37.697Z,2.35
2018-12-27T05:25:41.832Z,2.34
2018-12-27T05:26:42.061Z,2.24
2018-12-27T05:28:46.233Z,2.30
2018-12-27T05:29:46.460Z,2.35
2018-12-27T05:31:51.754Z,2.27
2018-12-27T05:32:50.852Z,2.21
2018-12-27T05:34:43.931Z,2.16
2018-12-27T05:35:44.162Z,2.16
2018-12-27T05:37:48.340Z,2.07
2018-12-27T05:38:48.574Z,2.17
2018-12-27T05:40:52.722Z,2.10
2018-12-27T05:41:52.953Z,2.10
2018-12-27T05:43:57.118Z,2.12
2018-12-27T05:44:57.351Z,2.02
2018-12-27T05:47:01.517Z,2.06
2018-12-27T05:48:01.749Z,2.07
2018-12-27T05:50:05.890Z,2.16
2018-12-27T05:51:06.124Z,2.18
2018-12-27T05:53:10.291Z,2.28
2018-12-27T05:54:10.524Z,2.30
2018-12-27T05:56:14.671Z,2.41
2018-12-27T05:57:14.899Z,2.35
2018-12-27T05:59:19.061Z,2.43
2018-12-27T06:00:19.294Z,2.38
2018-12-27T06:02:23.458Z,2.35
2018-12-27T06:03:23.692Z,2.38
2018-12-27T06:05:27.831Z,2.35
2018-12-27T06:06:28.063Z,2.31
2018-12-27T06:08:32.228Z,2.35
2018-12-27T06:09:32.460Z,2.36
2018-12-27T06:11:36.602Z,2.36
2018-12-27T06:12:36.833Z,2.38
2018-12-27T06:14:29.925Z,2.39
2018-12-27T06:15:30.156Z,2.48
2018-12-27T06:17:34.322Z,2.45
2018-12-27T06:18:34.558Z,2.49
2018-12-27T06:20:39.707Z,2.43
2018-12-27T06:21:39.939Z,2.45
2018-12-27T06:23:44.107Z,2.45
2018-12-27T06:24:44.339Z,2.39
2018-12-27T06:26:48.483Z,2.28
2018-12-27T06:27:48.712Z,2.31
2018-12-27T06:29:52.877Z,2.27
2018-12-27T06:30:53.110Z,2.24
2018-12-27T06:32:57.273Z,2.17
2018-12-27T06:33:57.504Z,2.20
2018-12-27T06:36:01.648Z,2.21
2018-12-27T06:37:01.878Z,2.20
2018-12-27T06:39:06.046Z,2.27
2018-12-27T06:40:06.282Z,2.18
2018-12-27T06:42:10.422Z,2.18
2018-12-27T06:43:10.655Z,2.27
2018-12-27T06:45:03.748Z,2.18
2018-12-27T06:46:03.979Z,2.16
2018-12-27T06:48:08.118Z,2.23
2018-12-27T06:49:08.352Z,2.27
2018-12-27T06:51:12.513Z,2.25
2018-12-27T06:52:12.743Z,2.31
2018-12-27T06:54:16.902Z,2.42
2018-12-27T06:55:17.134Z,2.42
2018-12-27T06:57:21.271Z,2.31
2018-12-27T06:58:21.504Z,2.25
2018-12-27T07:00:25.672Z,2.18
2018-12-27T07:01:25.899Z,2.24
2018-12-27T07:03:30.038Z,2.14
2018-12-27T07:04:30.270Z,2.14
2018-12-27T07:06:34.435Z,2.17
2018-12-27T07:07:34.665Z,2.17
2018-12-27T07:09:38.823Z,2.18
2018-12-27T07:10:39.054Z,2.17
2018-12-27T07:12:43.192Z,2.24
2018-12-27T07:13:43.428Z,2.18
2018-12-27T07:15:47.588Z,2.16
2018-12-27T07:16:47.819Z,2.05
2018-12-27T07:18:51.959Z,2.03
2018-12-27T07:19:52.194Z,2.06
2018-12-27T07:21:56.370Z,2.03
2018-12-27T07:22:56.601Z,1.90
2018-12-27T07:24:49.692Z,1.77
2018-12-27T07:25:49.927Z,1.80
2018-12-27T07:27:54.079Z,1.70
2018-12-27T07:28:54.314Z,1.65
2018-12-27T07:30:58.481Z,1.77
2018-12-27T07:31:58.716Z,1.68
2018-12-27T07:34:02.856Z,1.76
2018-12-27T07:35:03.091Z,1.63
2018-12-27T07:37:07.259Z,1.79
2018-12-27T07:38:07.495Z,1.84
2018-12-27T07:40:11.663Z,2.17
2018-12-27T07:41:11.899Z,2.38
2018-12-27T07:43:16.043Z,3.00
2018-12-27T07:44:16.277Z,3.35
2018-12-27T07:46:20.452Z,3.42
2018-12-27T07:47:20.686Z,3.29
2018-12-27T07:49:24.835Z,2.97
2018-12-27T07:50:25.068Z,2.60
2018-12-27T07:52:29.239Z,2.43
2018-12-27T07:53:29.469Z,2.21
2018-12-27T07:55:33.637Z,2.05
2018-12-27T07:56:33.869Z,2.07
2018-12-27T07:58:39.042Z,2.16
2018-12-27T07:59:39.274Z,2.09
2018-12-27T08:01:43.437Z,2.17
2018-12-27T08:02:43.670Z,2.18
2018-12-27T08:04:36.737Z,2.34
2018-12-27T08:05:36.968Z,2.59
2018-12-27T08:07:41.134Z,2.60
2018-12-27T08:08:41.370Z,2.60
2018-12-27T08:10:45.535Z,2.77
2018-12-27T08:11:45.769Z,2.69
2018-12-27T08:13:49.910Z,2.89
2018-12-27T08:14:50.138Z,2.99
2018-12-27T08:16:54.317Z,3.02
2018-12-27T08:17:54.554Z,3.02
2018-12-27T08:19:58.683Z,3.06
2018-12-27T08:20:58.919Z,3.17
2018-12-27T08:23:03.078Z,3.17
2018-12-27T08:24:03.311Z,3.20
2018-12-27T08:26:07.481Z,3.13
2018-12-27T08:27:07.712Z,3.26
2018-12-27T08:29:11.856Z,3.29
2018-12-27T08:30:12.090Z,3.33
2018-12-27T08:32:16.259Z,3.45
2018-12-27T08:33:16.491Z,3.57
2018-12-27T08:35:20.633Z,3.83
2018-12-27T08:36:20.865Z,3.90
2018-12-27T08:38:25.025Z,4.47
2018-12-27T08:39:25.260Z,4.70
2018-12-27T08:41:29.424Z,4.42
2018-12-27T08:42:29.657Z,4.44
2018-12-27T08:44:22.724Z,4.40
2018-12-27T08:45:22.956Z,4.40
2018-12-27T08:47:27.120Z,4.29
2018-12-27T08:48:27.353Z,4.34
2018-12-27T08:50:31.507Z,4.34
2018-12-27T08:51:31.741Z,4.36
2018-12-27T08:53:35.918Z,4.44
2018-12-27T08:54:36.155Z,4.50
2018-12-27T08:56:40.323Z,4.55
2018-12-27T08:57:40.557Z,4.62
2018-12-27T08:59:44.699Z,4.91
2018-12-27T09:00:44.934Z,4.99
2018-12-27T09:02:49.104Z,5.07
2018-12-27T09:03:49.340Z,5.31
2018-12-27T09:05:53.484Z,7.49
2018-12-27T09:06:53.716Z,8.53
2018-12-27T09:08:57.887Z,8.22
2018-12-27T09:09:58.124Z,7.72
2018-12-27T09:12:02.295Z,6.77
2018-12-27T09:13:02.532Z,6.71
2018-12-27T09:14:55.613Z,6.49
2018-12-27T09:15:55.851Z,6.00
2018-12-27T09:18:00.023Z,5.72
2018-12-27T09:19:00.259Z,5.72
2018-12-27T09:21:04.407Z,5.40
2018-12-27T09:22:04.642Z,5.46
2018-12-27T09:24:08.812Z,5.51
2018-12-27T09:25:09.050Z,5.53
2018-12-27T09:27:13.221Z,5.13
2018-12-27T09:28:13.456Z,4.96
2018-12-27T09:30:17.609Z,4.89
2018-12-27T09:31:17.843Z,4.69
2018-12-27T09:33:22.011Z,5.02
2018-12-27T09:34:22.246Z,5.71
2018-12-27T09:36:26.401Z,8.44
2018-12-27T09:37:26.638Z,10.32
2018-12-27T09:39:30.808Z,12.85
2018-12-27T09:40:31.044Z,13.59
2018-12-27T09:42:35.226Z,15.03
2018-12-27T09:43:35.464Z,15.59
2018-12-27T09:45:39.618Z,16.05
2018-12-27T09:46:39.858Z,16.38
2018-12-27T09:48:44.032Z,16.93
2018-12-27T09:49:44.280Z,16.97
2018-12-27T09:51:48.449Z,17.30
2018-12-27T09:52:48.693Z,17.36
2018-12-27T09:54:41.807Z,16.73
2018-12-27T09:55:42.050Z,16.48
2018-12-27T09:57:46.238Z,16.17
2018-12-27T09:58:46.485Z,16.25
2018-12-27T10:00:50.660Z,15.90
2018-12-27T10:01:50.900Z,15.75
2018-12-27T10:03:55.088Z,15.50
2018-12-27T10:04:55.337Z,15.53
2018-12-27T10:06:59.507Z,15.35
2018-12-27T10:07:59.753Z,15.28
2018-12-27T10:10:03.957Z,15.34
2018-12-27T10:11:04.200Z,15.16
2018-12-27T10:13:08.396Z,14.70
2018-12-27T10:14:08.669Z,13.82
2018-12-27T10:16:12.808Z,13.00
2018-12-27T10:17:13.059Z,12.59
2018-12-27T10:19:17.257Z,11.62
2018-12-27T10:20:17.520Z,11.11
2018-12-27T10:22:21.674Z,10.74
2018-12-27T10:23:21.921Z,11.03
2018-12-27T10:25:27.142Z,11.27
2018-12-27T10:26:27.387Z,10.70
2018-12-27T10:28:31.579Z,8.94
2018-12-27T10:29:31.827Z,9.53
2018-12-27T10:31:35.991Z,10.68
2018-12-27T10:32:36.235Z,10.66
2018-12-27T10:34:29.361Z,9.14
2018-12-27T10:35:29.602Z,8.89
2018-12-27T10:37:33.771Z,8.86
2018-12-27T10:38:34.016Z,8.98
2018-12-27T10:40:38.200Z,8.84
2018-12-27T10:41:38.444Z,8.89
2018-12-27T10:43:42.628Z,8.84
2018-12-27T10:44:42.868Z,8.48
2018-12-27T10:46:47.028Z,7.85
2018-12-27T10:47:47.324Z,8.10
2018-12-27T10:49:51.451Z,7.85
2018-12-27T10:50:51.692Z,8.08
2018-12-27T10:52:55.851Z,7.82
2018-12-27T10:53:56.091Z,8.02
2018-12-27T10:56:00.269Z,7.77
2018-12-27T10:57:00.510Z,7.86
2018-12-27T10:59:04.686Z,7.85
2018-12-27T11:00:04.927Z,8.18
2018-12-27T11:02:09.081Z,9.26
2018-12-27T11:03:09.317Z,9.90
2018-12-27T11:05:02.428Z,11.17
2018-12-27T11:06:02.666Z,11.19
2018-12-27T11:08:06.824Z,10.48
2018-12-27T11:09:07.067Z,10.38
2018-12-27T11:11:11.246Z,10.61
2018-12-27T11:12:11.487Z,11.06
2018-12-27T11:14:15.663Z,12.14
2018-12-27T11:15:15.905Z,12.27
2018-12-27T11:17:20.066Z,13.17
2018-12-27T11:18:20.312Z,13.25
2018-12-27T11:20:24.505Z,12.95
2018-12-27T11:21:24.749Z,12.71
2018-12-27T11:23:28.928Z,12.70
2018-12-27T11:24:29.173Z,12.90
2018-12-27T11:26:33.332Z,13.87
2018-12-27T11:27:33.574Z,14.32
2018-12-27T11:29:37.757Z,13.15
2018-12-27T11:30:38.001Z,13.60
2018-12-27T11:32:42.162Z,16.05
2018-12-27T11:33:42.405Z,16.64
2018-12-27T11:35:46.593Z,17.07
2018-12-27T11:36:46.838Z,17.18
2018-12-27T11:38:51.025Z,16.31
2018-12-27T11:39:51.272Z,16.39
2018-12-27T11:41:55.442Z,16.60
2018-12-27T11:42:55.695Z,16.45
2018-12-27T11:44:48.810Z,16.63
2018-12-27T11:45:49.058Z,16.96
2018-12-27T11:47:53.235Z,17.74
2018-12-27T11:48:53.481Z,18.21
2018-12-27T11:50:57.684Z,16.64
2018-12-27T11:51:57.934Z,16.52
2018-12-27T11:54:02.124Z,16.91
2018-12-27T11:55:02.374Z,17.08
2018-12-27T11:57:06.548Z,16.60
2018-12-27T11:58:06.795Z,15.19
2018-12-27T12:00:10.994Z,14.69
2018-12-27T12:01:11.242Z,14.89
2018-12-27T12:03:15.416Z,15.28
2018-12-27T12:04:15.664Z,14.80
2018-12-27T12:06:19.860Z,14.77
2018-12-27T12:07:20.110Z,15.07
2018-12-27T12:09:24.301Z,15.60
2018-12-27T12:10:24.551Z,15.13
2018-12-27T12:12:28.718Z,14.88
2018-12-27T12:13:28.968Z,15.07
2018-12-27T12:15:33.159Z,14.65
2018-12-27T12:16:33.405Z,14.92
2018-12-27T12:18:37.573Z,14.69
2018-12-27T12:19:37.820Z,14.80
2018-12-27T12:21:42.011Z,14.29
2018-12-27T12:22:42.258Z,14.27
2018-12-27T12:24:35.389Z,13.60
2018-12-27T12:25:35.632Z,13.38
2018-12-27T12:27:39.803Z,12.87
2018-12-27T12:28:40.049Z,12.78
2018-12-27T12:30:44.248Z,13.25
2018-12-27T12:31:44.494Z,13.33
2018-12-27T12:33:48.664Z,13.64
2018-12-27T12:34:48.914Z,13.79
2018-12-27T12:36:53.111Z,14.65
2018-12-27T12:37:53.356Z,15.06
2018-12-27T12:39:57.547Z,14.75
2018-12-27T12:40:57.792Z,14.99
2018-12-27T12:43:01.961Z,14.77
2018-12-27T12:44:02.212Z,14.94
2018-12-27T12:46:06.420Z,15.07
2018-12-27T12:47:06.658Z,14.89
2018-12-27T12:49:10.832Z,15.20
2018-12-27T12:50:11.078Z,15.56
2018-12-27T12:52:16.284Z,15.27
2018-12-27T12:53:16.529Z,15.03
2018-12-27T12:55:20.728Z,14.81
2018-12-27T12:56:20.975Z,14.40
2018-12-27T12:58:25.159Z,14.69
2018-12-27T12:59:25.405Z,14.69
2018-12-27T13:01:29.601Z,14.39
2018-12-27T13:02:29.840Z,13.59
2018-12-27T13:04:22.929Z,13.79
2018-12-27T13:05:23.176Z,13.89
2018-12-27T13:07:27.360Z,13.82
2018-12-27T13:08:27.606Z,13.99
2018-12-27T13:10:31.773Z,13.79
2018-12-27T13:11:32.019Z,13.70
2018-12-27T13:13:36.222Z,13.10
2018-12-27T13:14:36.465Z,13.25
2018-12-27T13:16:40.671Z,13.77
2018-12-27T13:17:40.975Z,12.28
2018-12-27T13:19:45.099Z,12.53
2018-12-27T13:20:45.341Z,12.01
2018-12-27T13:22:49.522Z,11.67
2018-12-27T13:23:49.844Z,11.90
2018-12-27T13:25:54.041Z,11.95
2018-12-27T13:26:54.284Z,11.70
2018-12-27T13:28:58.461Z,11.04
2018-12-27T13:29:58.794Z,10.85
2018-12-27T13:32:02.979Z,9.69
2018-12-27T13:33:03.237Z,9.81
2018-12-27T13:34:56.371Z,9.64
2018-12-27T13:35:56.610Z,9.33
2018-12-27T13:38:00.791Z,9.38
2018-12-27T13:39:01.032Z,9.15
2018-12-27T13:41:05.187Z,8.92
2018-12-27T13:42:05.427Z,8.96
2018-12-27T13:44:09.603Z,9.02
2018-12-27T13:45:09.845Z,8.94
2018-12-27T13:47:14.028Z,8.92
2018-12-27T13:48:14.265Z,8.83
2018-12-27T13:50:18.427Z,8.71
2018-12-27T13:51:18.664Z,8.66
2018-12-27T13:53:22.839Z,8.65
2018-12-27T13:54:23.077Z,8.71
2018-12-27T13:56:27.236Z,8.48
2018-12-27T13:57:27.475Z,8.41
2018-12-27T13:59:31.651Z,8.12
2018-12-27T14:00:31.890Z,8.05
2018-12-27T14:02:37.090Z,8.07
2018-12-27T14:03:37.329Z,7.98
2018-12-27T14:05:41.478Z,7.93
2018-12-27T14:06:41.716Z,8.02
2018-12-27T14:08:45.889Z,7.97
2018-12-27T14:09:46.128Z,8.00
2018-12-27T14:11:50.278Z,7.75
2018-12-27T14:12:50.516Z,7.83
2018-12-27T14:14:43.619Z,7.77
2018-12-27T14:15:43.857Z,7.79
2018-12-27T14:17:49.068Z,7.55
2018-12-27T14:18:49.305Z,7.40
2018-12-27T14:20:54.464Z,7.37
2018-12-27T14:21:54.701Z,7.31
2018-12-27T14:23:58.871Z,7.32
2018-12-27T14:24:59.110Z,7.27
2018-12-27T14:27:04.315Z,7.28
2018-12-27T14:28:04.524Z,7.25
2018-12-27T14:30:08.697Z,7.24
2018-12-27T14:31:08.935Z,7.17
2018-12-27T14:33:13.107Z,7.20
2018-12-27T14:34:13.340Z,7.20
2018-12-27T14:36:17.487Z,7.10
2018-12-27T14:37:17.724Z,7.13
2018-12-27T14:39:21.894Z,7.06
2018-12-27T14:40:22.134Z,7.09
2018-12-27T14:42:26.282Z,7.06
2018-12-27T14:43:26.522Z,6.98
2018-12-27T14:45:30.688Z,6.87
2018-12-27T14:46:30.924Z,6.87
2018-12-27T14:48:35.090Z,6.79
2018-12-27T14:49:35.327Z,6.71
2018-12-27T14:51:39.483Z,6.66
2018-12-27T14:52:39.721Z,6.73
2018-12-27T14:54:32.820Z,6.91
2018-12-27T14:55:33.055Z,6.80
2018-12-27T14:57:37.206Z,6.85
2018-12-27T14:58:37.443Z,6.85
2018-12-27T15:00:41.609Z,6.91
2018-12-27T15:01:41.846Z,6.85
2018-12-27T15:03:46.014Z,6.84
2018-12-27T15:04:46.251Z,6.81
2018-12-27T15:06:50.494Z,6.70
2018-12-27T15:07:50.671Z,6.64
2018-12-27T15:09:54.841Z,6.56
2018-12-27T15:10:55.077Z,6.46
2018-12-27T15:13:00.244Z,6.44
2018-12-27T15:14:00.469Z,6.43
2018-12-27T15:16:04.642Z,6.36
2018-12-27T15:17:04.909Z,6.19
2018-12-27T15:19:09.086Z,6.25
2018-12-27T15:20:09.322Z,6.28
2018-12-27T15:22:13.467Z,6.34
2018-12-27T15:23:13.701Z,6.27
2018-12-27T15:25:06.797Z,6.25
2018-12-27T15:26:07.034Z,6.19
2018-12-27T15:28:11.179Z,6.19
2018-12-27T15:29:11.413Z,6.21
2018-12-27T15:31:15.583Z,6.11
2018-12-27T15:32:15.819Z,6.17
2018-12-27T15:34:21.513Z,6.04
2018-12-27T15:35:20.379Z,5.99
2018-12-27T15:37:24.535Z,6.00
2018-12-27T15:38:24.770Z,5.94
2018-12-27T15:40:29.130Z,5.91
2018-12-27T15:41:29.134Z,5.82
2018-12-27T15:43:33.312Z,5.76
2018-12-27T15:44:33.546Z,5.74
2018-12-27T15:46:37.714Z,5.76
2018-12-27T15:47:37.948Z,5.72
2018-12-27T15:49:42.112Z,5.76
2018-12-27T15:50:42.350Z,5.76
2018-12-27T15:52:46.495Z,5.65
2018-12-27T15:53:46.731Z,5.65
2018-12-27T15:55:50.894Z,5.72
2018-12-27T15:56:51.132Z,5.75
2018-12-27T15:58:55.288Z,5.64
2018-12-27T15:59:55.524Z,5.60
2018-12-27T16:01:59.698Z,5.53
2018-12-27T16:02:59.935Z,5.46
2018-12-27T16:04:53.034Z,5.53
2018-12-27T16:05:53.266Z,5.46
2018-12-27T16:07:57.409Z,5.51
2018-12-27T16:08:57.648Z,5.46
2018-12-27T16:11:01.826Z,5.46
2018-12-27T16:12:02.065Z,5.38
2018-12-27T16:14:06.221Z,5.13
2018-12-27T16:15:06.456Z,5.00
2018-12-27T16:17:10.629Z,4.86
2018-12-27T16:18:10.929Z,4.80
2018-12-27T16:20:16.142Z,4.85
2018-12-27T16:21:16.377Z,4.96
2018-12-27T16:23:20.521Z,5.10
2018-12-27T16:24:20.757Z,5.00
2018-12-27T16:26:24.934Z,5.07
2018-12-27T16:27:25.160Z,5.09
2018-12-27T16:29:29.302Z,5.21
2018-12-27T16:30:29.537Z,5.24
2018-12-27T16:32:33.702Z,5.27
2018-12-27T16:33:33.939Z,5.33
2018-12-27T16:35:38.107Z,5.30
2018-12-27T16:36:38.341Z,5.25
2018-12-27T16:38:42.488Z,5.21
2018-12-27T16:39:42.725Z,5.10
2018-12-27T16:41:46.889Z,5.21
2018-12-27T16:42:47.123Z,5.15
2018-12-27T16:44:40.198Z,5.27
2018-12-27T16:45:40.440Z,5.13
2018-12-27T16:47:44.602Z,4.97
2018-12-27T16:48:44.839Z,4.94
2018-12-27T16:50:49.001Z,4.89
2018-12-27T16:51:49.236Z,4.85
2018-12-27T16:53:53.385Z,4.89
2018-12-27T16:54:53.619Z,4.91
2018-12-27T16:56:57.788Z,5.00
2018-12-27T16:57:58.023Z,5.17
2018-12-27T17:00:02.172Z,5.07
2018-12-27T17:01:02.406Z,5.10
2018-12-27T17:03:06.574Z,5.04
2018-12-27T17:04:06.808Z,5.09
2018-12-27T17:06:10.972Z,5.21
2018-12-27T17:07:16.068Z,5.13
2018-12-27T17:09:15.356Z,5.36
2018-12-27T17:10:15.592Z,5.38
2018-12-27T17:12:19.760Z,5.53
2018-12-27T17:13:19.993Z,5.40
2018-12-27T17:15:24.133Z,5.42
2018-12-27T17:16:24.365Z,5.42
2018-12-27T17:18:28.531Z,5.42
2018-12-27T17:19:28.765Z,5.36
2018-12-27T17:21:32.928Z,5.25
2018-12-27T17:22:33.164Z,5.27
2018-12-27T17:24:26.236Z,5.13
2018-12-27T17:25:26.471Z,5.17
2018-12-27T17:27:30.636Z,5.21
2018-12-27T17:28:30.873Z,5.09
2018-12-27T17:30:35.021Z,5.17
2018-12-27T17:31:35.254Z,5.22
2018-12-27T17:33:39.424Z,5.09
2018-12-27T17:34:39.709Z,5.18
2018-12-27T17:36:43.829Z,5.20
2018-12-27T17:37:44.064Z,5.10
2018-12-27T17:39:48.209Z,5.28
2018-12-27T17:40:48.440Z,5.22
2018-12-27T17:42:52.602Z,5.25
2018-12-27T17:43:52.844Z,5.13
2018-12-27T17:45:56.988Z,5.22
2018-12-27T17:46:57.227Z,5.18
2018-12-27T17:49:01.392Z,5.21
2018-12-27T17:50:01.635Z,5.18
2018-12-27T17:52:05.832Z,5.25
2018-12-27T17:53:06.065Z,5.20
2018-12-27T17:54:59.144Z,5.15
2018-12-27T17:55:59.378Z,5.12
2018-12-27T17:58:03.538Z,5.06
2018-12-27T17:59:03.778Z,5.02
2018-12-27T18:01:07.918Z,4.97
2018-12-27T18:02:08.153Z,5.07
2018-12-27T18:04:12.323Z,5.00
2018-12-27T18:05:12.558Z,5.06
2018-12-27T18:07:16.704Z,5.02
2018-12-27T18:08:16.939Z,5.04
2018-12-27T18:10:21.105Z,5.00
2018-12-27T18:11:21.342Z,5.04
2018-12-27T18:13:25.505Z,5.04
2018-12-27T18:14:25.742Z,5.04
2018-12-27T18:16:29.889Z,5.04
2018-12-27T18:17:30.129Z,5.07
2018-12-27T18:19:35.330Z,5.07
2018-12-27T18:20:35.568Z,5.21
2018-12-27T18:22:39.707Z,5.18
2018-12-27T18:23:39.946Z,5.21
2018-12-27T18:25:44.125Z,5.27
2018-12-27T18:26:44.358Z,5.18
2018-12-27T18:28:48.530Z,5.04
2018-12-27T18:29:48.764Z,5.06
2018-12-27T18:31:52.908Z,5.10
2018-12-27T18:32:53.145Z,5.09
2018-12-27T18:34:46.243Z,5.09
2018-12-27T18:35:46.482Z,4.99
2018-12-27T18:37:50.639Z,5.00
2018-12-27T18:38:50.906Z,4.99
2018-12-27T18:40:55.038Z,5.09
2018-12-27T18:41:55.277Z,5.10
2018-12-27T18:43:59.441Z,5.06
2018-12-27T18:44:59.675Z,4.97
2018-12-27T18:47:03.817Z,5.04
2018-12-27T18:48:04.050Z,5.03
2018-12-27T18:50:08.215Z,5.04
2018-12-27T18:51:08.449Z,4.97
2018-12-27T18:53:13.609Z,5.00
2018-12-27T18:54:13.844Z,5.09
2018-12-27T18:56:18.199Z,5.00
2018-12-27T18:57:18.439Z,5.00
2018-12-27T18:59:22.827Z,4.88
2018-12-27T19:00:22.889Z,4.84
2018-12-27T19:02:27.106Z,4.82
2018-12-27T19:03:27.432Z,4.73
2018-12-27T19:05:31.646Z,4.59
2018-12-27T19:06:31.956Z,4.60
2018-12-27T19:08:36.125Z,4.63
2018-12-27T19:09:36.688Z,4.70
2018-12-27T19:11:40.657Z,4.75
2018-12-27T19:12:40.957Z,4.72
2018-12-27T19:14:34.157Z,4.70
2018-12-27T19:15:34.489Z,4.72
2018-12-27T19:17:38.659Z,4.63
2018-12-27T19:18:39.064Z,4.62
2018-12-27T19:20:43.237Z,4.48
2018-12-27T19:21:43.546Z,4.48
2018-12-27T19:23:47.689Z,4.40
2018-12-27T19:24:47.970Z,4.44
2018-12-27T19:26:52.135Z,4.47
2018-12-27T19:27:52.394Z,4.44
2018-12-27T19:29:56.563Z,4.45
2018-12-27T19:30:56.799Z,4.40
2018-12-27T19:33:00.943Z,4.47
2018-12-27T19:34:01.180Z,4.42
2018-12-27T19:36:05.349Z,4.29
2018-12-27T19:37:05.582Z,4.30
2018-12-27T19:39:09.732Z,4.24
2018-12-27T19:40:09.964Z,4.34
2018-12-27T19:42:14.138Z,4.23
2018-12-27T19:43:14.437Z,4.16
2018-12-27T19:45:07.537Z,4.15
2018-12-27T19:46:07.774Z,4.14
2018-12-27T19:48:11.921Z,4.22
2018-12-27T19:49:13.299Z,4.24
2018-12-27T19:51:16.368Z,4.27
2018-12-27T19:52:16.602Z,4.34
2018-12-27T19:54:20.751Z,4.27
2018-12-27T19:55:21.040Z,4.36
2018-12-27T19:57:25.228Z,4.41
2018-12-27T19:58:25.457Z,4.40
2018-12-27T20:00:29.618Z,4.16
2018-12-27T20:01:29.852Z,4.12
2018-12-27T20:03:33.999Z,3.96
2018-12-27T20:04:34.307Z,3.93
2018-12-27T20:06:38.472Z,3.80
2018-12-27T20:07:38.702Z,3.78
2018-12-27T20:09:44.326Z,3.65
2018-12-27T20:10:44.322Z,3.62
2018-12-27T20:12:48.594Z,3.72
2018-12-27T20:13:48.966Z,3.73
2018-12-27T20:15:53.133Z,3.70